KHLX

Twin County Airport

Galax Hillsville, Virginia, USA
METAR KHLX 181615Z AUTO 00000KT 10SM BKN011 OVC018 08/06 A3014 RMK AO2 T00800061
Observed Flight Rules
Dec-18 @ 16:15 UTC (20 minutes ago) Marginal Visual Flight Rules
Wind Visibility Clouds
Calm 10 miles
  • Broken at 1,100' AGL
  • Overcast at 1,800' AGL
Temperatures Readings
Current 8°C / 46°F
Dewpoint 6°C / 43°F
Humidity 87%
Altimeter 30.14" Hg
Pressure 1021 hPa
Elevation 834
METAR KHLX 181615Z AUTO 00000KT 10SM BKN011 OVC018 08/06 A3014 RMK AO2 T00800061
Observed Flight Rules
Dec-18 @ 16:15 UTC
(20 minutes ago)
MVFR
Wind Visibility
Calm 10 miles
Clouds
  • Broken at 1,100' AGL
  • Overcast at 1,800' AGL
Temperature Dewpoint
8°C / 46°F 6°C / 43°F
Humidity Altimeter Pressure
87% 30.14" Hg 1021 hPa